createdAt,value
2022-08-17T00:04:19.929Z,29.59
2022-08-17T00:09:21.897Z,29.58
2022-08-17T00:14:23.946Z,29.53
2022-08-17T00:19:26.905Z,29.50
2022-08-17T00:24:29.525Z,29.47
2022-08-17T00:29:31.660Z,29.42
2022-08-17T00:34:33.636Z,29.39
2022-08-17T00:39:36.251Z,29.38
2022-08-17T00:44:38.277Z,29.41
2022-08-17T00:49:40.562Z,29.44
2022-08-17T00:54:47.248Z,29.48
2022-08-17T01:00:02.503Z,29.39
2022-08-17T01:05:08.290Z,29.41
2022-08-17T01:11:00.038Z,29.41
2022-08-17T01:15:38.300Z,29.40
2022-08-17T01:20:48.956Z,29.35
2022-08-17T01:25:56.797Z,29.32
2022-08-17T01:31:01.150Z,29.31
2022-08-17T01:36:04.730Z,29.28
2022-08-17T01:41:14.009Z,29.23
2022-08-17T01:46:27.477Z,29.25
2022-08-17T01:51:33.175Z,29.18
2022-08-17T01:56:38.945Z,29.15
2022-08-17T02:01:41.141Z,29.17
2022-08-17T02:06:53.329Z,29.19
2022-08-17T02:11:59.073Z,29.22
2022-08-17T02:17:01.141Z,29.18
2022-08-17T02:22:03.728Z,29.13
2022-08-17T02:27:07.016Z,29.11
2022-08-17T02:32:25.458Z,29.07
2022-08-17T02:37:31.606Z,29.05
2022-08-17T02:42:39.090Z,29.07
2022-08-17T02:47:41.792Z,29.04
2022-08-17T02:52:47.515Z,28.99
2022-08-17T02:58:04.787Z,28.96
2022-08-17T03:03:08.441Z,28.94
2022-08-17T03:08:11.765Z,29.02
2022-08-17T03:13:15.725Z,28.99
2022-08-17T03:18:24.816Z,29.02
2022-08-17T03:23:29.423Z,28.97
2022-08-17T03:28:31.864Z,28.99
2022-08-17T03:33:34.271Z,28.98
2022-08-17T03:38:38.939Z,28.99
2022-08-17T03:43:41.717Z,29.02
2022-08-17T03:49:02.471Z,29.05
2022-08-17T03:54:23.416Z,29.07
2022-08-17T03:59:25.428Z,29.03
2022-08-17T04:04:28.188Z,29.07
2022-08-17T04:09:30.361Z,29.01
2022-08-17T04:14:51.549Z,28.96
2022-08-17T04:19:56.460Z,28.98
2022-08-17T04:24:58.708Z,29.02
2022-08-17T04:30:01.255Z,28.95
2022-08-17T04:35:03.397Z,28.99
2022-08-17T04:40:27.253Z,28.99
2022-08-17T04:45:32.068Z,28.96
2022-08-17T04:50:36.414Z,28.97
2022-08-17T04:55:42.843Z,28.81
2022-08-17T05:00:44.914Z,28.91
2022-08-17T05:05:50.075Z,29.11
2022-08-17T05:10:52.554Z,29.11
2022-08-17T05:15:57.943Z,29.00
2022-08-17T05:21:00.246Z,28.94
2022-08-17T05:26:02.668Z,28.66
2022-08-17T05:31:04.965Z,28.68
2022-08-17T05:36:08.835Z,28.73
2022-08-17T05:41:30.798Z,28.74
2022-08-17T05:46:37.926Z,28.77
2022-08-17T05:52:03.539Z,28.82
2022-08-17T05:57:43.570Z,28.91
2022-08-17T06:03:24.198Z,29.01
2022-08-17T06:08:29.161Z,29.15
2022-08-17T06:14:03.935Z,29.14
2022-08-17T06:19:21.849Z,29.11
2022-08-17T06:24:37.972Z,29.03
2022-08-17T06:29:44.114Z,28.93
2022-08-17T06:34:46.654Z,28.95
2022-08-17T06:40:07.486Z,28.92
2022-08-17T06:45:17.954Z,28.91
2022-08-17T06:50:31.496Z,28.93
2022-08-17T06:55:46.741Z,28.96
2022-08-17T07:00:55.399Z,29.02
2022-08-17T07:06:07.097Z,29.07
2022-08-17T07:11:14.577Z,28.98
2022-08-17T07:16:50.926Z,29.12
2022-08-17T07:22:04.038Z,29.15
2022-08-17T07:27:22.133Z,29.01
2022-08-17T07:32:32.382Z,29.04
2022-08-17T07:37:37.027Z,29.03
2022-08-17T07:42:41.860Z,29.11
2022-08-17T07:48:10.588Z,29.02
2022-08-17T07:53:21.101Z,29.16
2022-08-17T07:58:24.249Z,29.17
2022-08-17T08:03:32.068Z,29.26
2022-08-17T08:08:42.742Z,29.29
2022-08-17T08:13:45.904Z,29.33
2022-08-17T08:18:55.446Z,29.46
2022-08-17T08:24:31.118Z,29.39
2022-08-17T08:29:55.316Z,29.48
2022-08-17T08:35:26.999Z,29.47
2022-08-17T08:40:56.457Z,29.39
2022-08-17T08:46:05.388Z,29.44
2022-08-17T08:51:07.268Z,29.46
2022-08-17T08:56:31.747Z,29.42
2022-08-17T09:01:52.448Z,29.44
2022-08-17T09:07:12.788Z,29.41
2022-08-17T09:12:32.776Z,29.39
2022-08-17T09:17:40.052Z,29.37
2022-08-17T09:22:51.680Z,29.43
2022-08-17T09:28:03.840Z,29.48
2022-08-17T09:58:34.113Z,29.59
2022-08-17T11:34:25.776Z,29.84
2022-08-17T11:40:05.396Z,29.90
2022-08-17T11:45:32.636Z,30.03
2022-08-17T11:51:15.655Z,30.04
2022-08-17T11:56:35.221Z,30.11
2022-08-17T12:01:56.129Z,30.12
2022-08-17T12:07:00.268Z,30.17
2022-08-17T12:12:14.347Z,30.22
2022-08-17T12:17:41.184Z,30.22
2022-08-17T12:23:04.244Z,30.22
2022-08-17T12:28:22.657Z,30.01
2022-08-17T12:33:28.337Z,29.88
2022-08-17T12:38:35.437Z,29.98
2022-08-17T12:43:36.908Z,30.02
2022-08-17T12:48:39.049Z,29.93
2022-08-17T12:54:01.765Z,29.92
2022-08-17T12:59:03.477Z,29.94
2022-08-17T13:04:05.436Z,29.91
2022-08-17T13:09:12.999Z,29.93
2022-08-17T13:14:17.787Z,29.92
2022-08-17T13:19:32.958Z,29.93
2022-08-17T13:24:55.540Z,29.98
2022-08-17T13:30:00.748Z,29.96
2022-08-17T13:35:43.673Z,29.93
2022-08-17T13:40:52.035Z,29.92
2022-08-17T13:46:06.447Z,29.89
2022-08-17T13:51:23.133Z,29.85
2022-08-17T13:56:39.913Z,29.87
2022-08-17T14:01:53.343Z,29.87
2022-08-17T14:06:55.025Z,29.87
2022-08-17T14:11:57.589Z,29.85
2022-08-17T14:16:59.168Z,29.85
2022-08-17T14:22:01.129Z,29.86
2022-08-17T14:27:04.937Z,29.89
2022-08-17T14:32:31.511Z,29.91
2022-08-17T14:37:33.876Z,29.88
2022-08-17T14:42:37.403Z,29.83
2022-08-17T14:47:40.541Z,29.76
2022-08-17T14:52:42.155Z,29.68
2022-08-17T14:57:44.531Z,29.56
2022-08-17T15:02:47.965Z,29.40
2022-08-17T15:07:49.720Z,29.20
2022-08-17T15:12:51.265Z,29.35
2022-08-17T15:17:52.638Z,29.43
2022-08-17T15:22:54.733Z,29.52
2022-08-17T15:27:56.460Z,29.56
2022-08-17T15:32:59.675Z,29.54
2022-08-17T15:38:10.734Z,29.19
2022-08-17T15:43:24.764Z,28.60
2022-08-17T15:48:50.482Z,28.50
2022-08-17T15:54:19.214Z,28.58
2022-08-17T15:59:24.664Z,28.58
2022-08-17T16:04:30.923Z,28.39
2022-08-17T16:09:33.112Z,28.44
2022-08-17T16:14:35.243Z,28.47
2022-08-17T16:19:39.238Z,28.30
2022-08-17T16:24:57.181Z,28.25
2022-08-17T16:29:58.900Z,28.37
2022-08-17T16:35:02.569Z,28.50
2022-08-17T16:40:06.252Z,28.58
2022-08-17T16:45:16.462Z,28.59
2022-08-17T16:50:20.061Z,28.60
2022-08-17T16:55:22.005Z,28.52
2022-08-17T17:00:23.264Z,28.34
2022-08-17T17:05:39.481Z,28.56
2022-08-17T17:10:55.178Z,28.77
2022-08-17T17:16:16.402Z,28.94
2022-08-17T17:21:24.046Z,29.01
2022-08-17T17:26:34.223Z,29.06
2022-08-17T17:31:44.656Z,29.09
2022-08-17T17:36:53.671Z,29.11
2022-08-17T17:41:57.236Z,29.12
2022-08-17T17:47:01.273Z,29.15
2022-08-17T17:52:19.567Z,29.13
2022-08-17T17:57:58.490Z,29.00
2022-08-17T18:03:14.622Z,28.92
2022-08-17T18:08:18.573Z,28.93
2022-08-17T18:13:39.924Z,28.86
2022-08-17T18:18:44.164Z,28.78
2022-08-17T18:23:53.871Z,28.75
2022-08-17T18:28:55.290Z,28.74
2022-08-17T18:34:45.971Z,28.73
2022-08-17T18:39:44.509Z,28.72
2022-08-17T18:44:46.098Z,28.68
2022-08-17T18:49:56.768Z,28.68
2022-08-17T18:55:10.141Z,28.67
2022-08-17T19:00:30.208Z,28.53
2022-08-17T19:05:38.743Z,28.56
2022-08-17T19:10:46.107Z,28.59
2022-08-17T19:16:15.753Z,28.52
2022-08-17T19:21:29.912Z,28.49
2022-08-17T19:26:54.333Z,28.52
2022-08-17T19:31:58.920Z,28.52
2022-08-17T19:37:21.825Z,28.54
2022-08-17T19:42:54.463Z,28.53
2022-08-17T19:48:14.064Z,28.54
2022-08-17T19:54:03.695Z,28.57
2022-08-17T19:59:05.930Z,28.58
2022-08-17T20:04:17.028Z,28.58
2022-08-17T20:09:21.152Z,28.52
2022-08-17T20:14:35.914Z,28.36
2022-08-17T20:19:51.533Z,28.28
2022-08-17T20:24:54.755Z,28.29
2022-08-17T20:30:04.808Z,28.31
2022-08-17T20:35:19.320Z,28.36
2022-08-17T20:40:27.300Z,28.36
2022-08-17T20:45:52.471Z,28.40
2022-08-17T20:51:00.282Z,28.37
2022-08-17T20:56:01.682Z,28.50
2022-08-17T21:01:19.332Z,28.61
2022-08-17T21:06:23.751Z,28.54
2022-08-17T21:12:02.207Z,28.46
2022-08-17T21:17:23.148Z,28.58
2022-08-17T21:22:31.245Z,28.67
2022-08-17T21:27:45.092Z,28.75
2022-08-17T21:33:11.089Z,28.77
2022-08-17T21:38:14.825Z,28.83
2022-08-17T21:43:23.715Z,28.88
2022-08-17T21:48:29.172Z,28.81
2022-08-17T21:53:38.676Z,28.76
2022-08-17T21:58:47.903Z,28.69
2022-08-17T22:04:04.659Z,28.66
2022-08-17T22:09:31.943Z,28.60
2022-08-17T22:14:51.543Z,28.56
2022-08-17T22:20:20.196Z,28.55
2022-08-17T22:25:22.967Z,28.32
2022-08-17T22:30:29.766Z,28.26
2022-08-17T22:35:34.804Z,28.29
2022-08-17T22:40:36.190Z,28.34
2022-08-17T22:45:51.000Z,28.39
2022-08-17T22:51:12.348Z,28.46
2022-08-17T22:56:36.524Z,28.50
2022-08-17T23:02:32.673Z,28.51
2022-08-17T23:07:34.223Z,28.56
2022-08-17T23:12:39.352Z,28.57
2022-08-17T23:17:41.428Z,28.60
2022-08-17T23:22:51.451Z,28.62
2022-08-17T23:27:56.801Z,28.56
2022-08-17T23:33:00.730Z,28.63
2022-08-17T23:38:02.055Z,28.67
2022-08-17T23:43:05.949Z,28.66
2022-08-17T23:48:32.515Z,28.68
2022-08-17T23:53:43.452Z,28.70
2022-08-17T23:58:44.919Z,28.70
